Tiempo atmosférico en la estación meteorológica de La Puebla De Los Infantes, Sevilla (200 m.)



Fecha
DESCASC
Temp. máxima en grados centígrados (hora)
DESCASC
Temp. mínima en grados centígrados (hora)
DESCASC
Temp. media en grados centígrados
DESCASC
Racha de viento máxima en m/sg (hora)
DESCASC
Velocidad máxima media en intervalos de 10 minutos(hora)
DESCASC
Precipitaciones diarias en mm
DESCASC
Precipitaciones de 00:00 a 06:00 en mm
DESCASC
Precipitaciones de 06:00 a 12:00 en mm
DESCASC
Precipitaciones de 12:00 a 18:00 en mm
DESCASC
Precipitaciones de 18:00 a 24:00 en mm
DESCASC
27-01-2020 12.2 (16:20) 2.2 (04:10) 7.2 3.61 (16:40) 1.94 (16:10) 0 0 0 0 0
26-01-2020 12.9 (18:00) 3.8 (23:10) 8.3 3.33 (13:50) 1.67 (13:50) 0.2 0.2 0 0 0
25-01-2020 11.4 (14:30) 7.9 (00:00) 9.6 5.28 (09:30) 3.61 (09:30) 14.6 0.6 12.8 1 0.2
24-01-2020 13.2 (14:00) 8.2 (00:00) 10.7 7.78 (21:00) 4.72 (21:00) 27 1.6 0.2 4.2 21
23-01-2020 11.7 (15:00) 8.1 (00:00) 9.9 7.22 (07:30) 4.72 (14:00) 28 1.6 6.2 4.2 16
22-01-2020 12.3 (15:50) 6.8 (00:00) 9.6 8.33 (06:20) 5 (06:40) 17.6 7.6 9.6 0 0.4
21-01-2020 11.1 (15:50) 5.1 (00:00) 8.1 10.28 (11:50) 5.83 (00:10) 0 0 0 0 0
20-01-2020 12.1 (16:40) 6.2 (00:00) 9.2 14.72 (00:20) 8.06 (00:50) 0 0 0 0 0
19-01-2020 14.3 (15:20) 6.3 (00:00) 10.3 16.11 (20:00) 10.28 (20:00) 0.2 0.2 0 0 0
18-01-2020 12.3 (23:10) 5.7 (00:00) 9 4.72 (23:00) 2.78 (23:00) 9.8 0 3.4 5.6 0.8
17-01-2020 16.9 (16:40) 5.4 (00:00) 11.1 3.89 (15:20) 2.22 (04:00) 0.2 0 0.2 0 0
16-01-2020 17.7 (15:40) 0.6 (00:00) 9.2 5.83 (16:20) 3.33 (16:20) 0 0 0 0 0
15-01-2020 16.3 (16:30) -0.5 (-00:0) 7.9 4.17 (11:20) 3.06 (12:00) 0 0 0 0 0
14-01-2020 14 (15:50) -0.9 (-00:0) 6.6 5 (16:00) 2.5 (16:00) 0 0 0 0 0
13-01-2020 14.6 (16:10) -3.2 (-00:0) 5.7 4.72 (17:20) 2.78 (17:00) 0 0 0 0 0
12-01-2020 15.7 (16:30) -2.6 (08:20) 6.5 4.44 (12:00) 2.78 (12:00) 0 0 0 0 0
11-01-2020 16.3 (16:20) 0.5 (00:00) 8.4 6.11 (12:40) 3.61 (12:30) 0 0 0 0 0
10-01-2020 15.6 (16:50) 0.1 (00:00) 7.9 7.78 (11:10) 4.44 (10:00) 0 0 0 0 0
09-01-2020 15.1 (16:20) -1.7 (-00:0) 6.7 6.39 (14:30) 4.17 (14:30) 0 0 0 0 0
08-01-2020 18.2 (17:20) -2.1 (-00:0) 8.1 3.89 (14:40) 2.22 (14:50) 0 0 0 0 0
07-01-2020 17 (15:20) -1.5 (-00:0) 7.8 4.72 (14:30) 3.06 (13:30) 0.2 0 0.2 0 0
06-01-2020 15.6 (16:10) -1.3 (-00:0) 7.2 4.44 (14:40) 2.22 (15:30) 0 0 0 0 0
05-01-2020 14.5 (15:50) 1 (00:00) 7.8 4.72 (15:30) 3.33 (13:50) 0 0 0 0 0
04-01-2020 13.1 (15:40) 1.1 (00:00) 7.1 7.22 (12:10) 4.17 (12:10) 0 0 0 0 0
03-01-2020 14.3 (14:50) 1.6 (00:00) 8 5.83 (15:20) 3.61 (15:20) 0 0 0 0 0
02-01-2020 15.7 (16:50) -0.7 (-00:0) 7.5 3.61 (12:10) 2.5 (12:00) 0 0 0 0 0
01-01-2020 16.4 (16:40) -0.3 (00:00) 8 4.17 (12:00) 2.5 (12:00) 0 0 0 0 0
31-12-2019 15.6 (16:20) -0.3 (00:00) 7.7 6.39 (12:50) 4.72 (12:50) 0 0 0 0 0
30-12-2019 -- (--) -- (--) -- -- (--) -- (--) -- 0 0 -- 0

Gráficas

Temp. máximas Temp. mínimas Temp. medias Precipitaciones Rachas de viento máximas Velocidades máximas media en intervalos de 10 minutos

Datos horarios

Fecha y hora oficial Temperatura (ºC) Velocidad del viento (km/h) Dirección del viento Racha (km/h) Dirección de racha Precipitación (mm) Presión (hPa) Tendencia (hPa) Humedad (%)
2020-01-28 23:00:00 10.9 0 Calma 4 Nordeste 0 -- -- 97
2020-01-28 22:00:00 10.8 3 Norte 6 Oeste 0 -- -- 97
2020-01-28 21:00:00 11 3 Oeste 8 Nordeste 0 -- -- 95
2020-01-28 20:00:00 11.9 2 Norte 6 Sudoeste 0 -- -- 92
2020-01-28 19:00:00 13.2 3 Sudoeste 9 Sur 0 -- -- 90
2020-01-28 18:00:00 14.1 7 Sur 14 Sur 0 -- -- 87
2020-01-28 17:00:00 14.5 9 Sur 14 Sur 0 -- -- 86
2020-01-28 16:00:00 14.3 4 Oeste 8 Sudoeste 0 -- -- 83
2020-01-28 15:00:00 14.2 3 Sudoeste 11 Sudoeste 0 -- -- 82
2020-01-28 14:00:00 14.2 6 Oeste 12 Oeste 0 -- -- 85
2020-01-28 13:00:00 13.6 4 Sudeste 8 Este 0 -- -- 89
2020-01-28 12:00:00 12.7 6 Sudeste 10 Este 0 -- -- 91
2020-01-28 11:00:00 11.1 0 Calma 5 Oeste 0 -- -- 97
2020-01-28 10:00:00 10.1 0 Calma 5 Noroeste 0 -- -- 99
2020-01-28 09:00:00 9.3 3 Noroeste 5 Noroeste 0 -- -- 99
2020-01-28 08:00:00 8.8 0 Calma 3 Sudoeste 0 -- -- 98
2020-01-28 07:00:00 8.6 0 Calma 4 Norte 0 -- -- 98
2020-01-28 06:00:00 9.4 0 Calma 4 Sudeste 0 -- -- 98
2020-01-28 05:00:00 9.4 0 Calma 4 Este 0 -- -- 98
2020-01-28 04:00:00 9.8 0 Calma -- -- 0 -- -- 98
2020-01-28 03:00:00 9.6 0 Calma -- -- 0 -- -- 98
2020-01-28 02:00:00 9.2 0 Calma 2 Este 0 -- -- 98
2020-01-28 01:00:00 8.9 0 Calma 5 Este 0 -- -- 97
2020-01-28 00:00:00 9.6 0 Calma -- -- 0 -- -- 96
2020-01-27 23:00:00 10.3 0 Calma 3 Este 0 -- -- 96
2020-01-27 22:00:00 10.3 4 Noroeste 6 Oeste 0 -- -- 95
2020-01-27 21:00:00 11 2 Noroeste 8 Sudoeste 0 -- -- 92
2020-01-27 20:00:00 11.2 0 Calma 7 Sudoeste 0 -- -- 91
2020-01-27 19:00:00 11.4 3 Sur 9 Sur 0 -- -- 90
2020-01-27 18:00:00 12 0 Calma 8 Oeste 0 -- -- 85
2020-01-27 17:00:00 12.2 6 Noroeste 13 Oeste 0 -- -- 84
2020-01-27 16:00:00 12 6 Oeste 9 Oeste 0 -- -- 85
2020-01-27 15:00:00 11.6 2 Nordeste 6 Oeste 0 -- -- 87
2020-01-27 14:00:00 10.6 2 Norte 8 Nordeste 0 -- -- 88
2020-01-27 13:00:00 10 3 Sudeste 9 Este 0 -- -- 90
2020-01-27 12:00:00 8.8 3 Nordeste 12 Este 0 -- -- 96
2020-01-27 11:00:00 8.1 6 Este 10 Este 0 -- -- 100
2020-01-27 10:00:00 7.7 5 Este 9 Sudeste 0 -- -- 100
2020-01-27 09:00:00 7.2 2 Sudeste 4 Norte 0 -- -- 100
2020-01-27 08:00:00 6.6 0 Calma 3 Noroeste 0 -- -- 100
2020-01-27 07:00:00 5.7 0 Calma 2 Sudeste 0 -- -- 100
2020-01-27 06:00:00 4.7 0 Calma 2 Sur 0 -- -- 100
2020-01-27 05:00:00 3.2 0 Calma 0 Calma 0 -- -- 100
2020-01-27 04:00:00 2.3 0 Calma 3 Noroeste 0 -- -- 99
2020-01-27 03:00:00 2.9 0 Calma 3 Norte 0 -- -- 99
2020-01-27 02:00:00 4 0 Calma 3 Noroeste 0 -- -- 99
2020-01-27 01:00:00 3.7 0 Calma 4 Norte 0 -- -- 99
2020-01-27 00:00:00 3.8 3 Noroeste 5 Noroeste 0 -- -- 98
2020-01-26 23:00:00 4 0 Calma 5 Noroeste 0 -- -- 97
2020-01-26 22:00:00 4.7 0 Calma 3 Noroeste 0 -- -- 96
2020-01-26 21:00:00 6 2 Norte 4 Norte 0 -- -- 95
2020-01-26 20:00:00 7.7 2 Norte 5 Noroeste 0 -- -- 93
2020-01-26 19:00:00 10.4 0 Calma 9 Sur 0 -- -- 88
2020-01-26 18:00:00 12.9 3 Oeste 8 Sur 0 -- -- 82
2020-01-26 17:00:00 11.9 4 Sur 10 Sudeste 0 -- -- 86
2020-01-26 16:00:00 10.8 2 Sur 8 Sur 0 -- -- 89
2020-01-26 15:00:00 10.3 3 Sur 10 Sur 0 -- -- 94
2020-01-26 14:00:00 9.8 6 Este 12 Sudeste 0 -- -- 96
2020-01-26 13:00:00 8.9 2 Este 8 Este 0 -- -- 100
2020-01-26 12:00:00 8.3 4 Sudeste 9 Sudeste 0 -- -- 100
2020-01-26 11:00:00 7.3 4 Sudeste 6 Sudeste 0 -- -- 100
2020-01-26 10:00:00 5.6 0 Calma 3 Norte 0 -- -- 100
2020-01-26 09:00:00 4.6 0 Calma 4 Norte 0 -- -- 100
2020-01-26 08:00:00 4.9 2 Noroeste 5 Oeste 0 -- -- 100
2020-01-26 07:00:00 5.5 0 Calma 3 Noroeste 0 -- -- 100
2020-01-26 06:00:00 5.8 0 Calma 4 Noroeste 0.2 -- -- 100
2020-01-26 05:00:00 6.7 0 Calma 4 Norte 0 -- -- 100
2020-01-26 04:00:00 8.2 0 Calma 5 Norte 0 -- -- 99
2020-01-26 03:00:00 8.7 0 Calma 8 Oeste 0 -- -- 99
2020-01-26 02:00:00 8.7 3 Oeste 8 Noroeste 0 -- -- 99
2020-01-26 01:00:00 8.7 2 Sudoeste 4 Sudoeste 0 -- -- 99
2020-01-26 00:00:00 8.6 0 Calma 3 Oeste 0 -- -- 99
2020-01-25 23:00:00 8 0 Calma 6 Noroeste 0 -- -- 98
2020-01-25 22:00:00 9.3 0 Calma 5 Norte 0 -- -- 97
2020-01-25 21:00:00 10 3 Norte 8 Este 0 -- -- 98
2020-01-25 20:00:00 10.4 3 Este 6 Este 0 -- -- 98
2020-01-25 19:00:00 10.7 3 Sudeste 6 Sudeste 0.2 -- -- 97
2020-01-25 18:00:00 11 3 Este 6 Sur 0 -- -- 95
2020-01-25 17:00:00 10.9 6 Sur 16 Sur 0.4 -- -- 96
2020-01-25 16:00:00 11.1 6 Sur 17 Sur 0.4 -- -- 94
2020-01-25 15:00:00 11.3 5 Sur 13 Sudeste 0 -- -- 90
2020-01-25 14:00:00 11 8 Sudeste 15 Sur 0 -- -- 93
2020-01-25 13:00:00 10.4 9 Sudeste 17 Sudeste 0.2 -- -- 98
2020-01-25 12:00:00 9.9 8 Sudeste 18 Sudeste 0.8 -- -- 98
2020-01-25 11:00:00 9.7 9 Este 17 Este 2.4 -- -- 99
2020-01-25 10:00:00 9.2 3 Sudeste 19 Este 5.4 -- -- 99
2020-01-25 09:00:00 9.2 8 Este 13 Este 1.6 -- -- 99
2020-01-25 08:00:00 9 2 Nordeste 9 Nordeste 0.2 -- -- 98
2020-01-25 07:00:00 9.3 5 Nordeste 14 Sur 2.4 -- -- 98
2020-01-25 06:00:00 9.5 8 Sur 15 Sudeste 0.4 -- -- 98
2020-01-25 05:00:00 9.3 0 Calma 9 Nordeste 0 -- -- 98
2020-01-25 04:00:00 9.2 3 Este 9 Nordeste 0 -- -- 99
2020-01-25 03:00:00 9.3 4 Nordeste 12 Sur 0 -- -- 98
2020-01-25 02:00:00 10.3 6 Sur 12 Sudoeste 0 -- -- 98
2020-01-25 01:00:00 10.4 8 Sudoeste 17 Sur 0.2 -- -- 98
2020-01-25 00:00:00 10.3 9 Sur 28 Sudeste 1.4 -- -- 98
2020-01-24 23:00:00 10.3 12 Este 24 Este 3 -- -- 98
2020-01-24 22:00:00 10.3 15 Este 25 Este 5.6 -- -- 97
2020-01-24 21:00:00 10.4 17 Este 28 Este 2 -- -- 97
2020-01-24 20:00:00 10.4 6 Este 11 Sudeste 6.6 -- -- 97
2020-01-24 19:00:00 10.7 2 Este 9 Nordeste 2.4 -- -- 96
2020-01-24 18:00:00 11.1 4 Este 10 Este 2 -- -- 96
2020-01-24 17:00:00 11.5 7 Este 13 Este 1.6 -- -- 94
2020-01-24 16:00:00 12.1 8 Este 15 Este 0.6 -- -- 89
2020-01-24 15:00:00 12.8 10 Este 19 Este 0 -- -- 84
2020-01-24 14:00:00 13.2 13 Este 19 Sudeste 0 -- -- 81
2020-01-24 13:00:00 12.3 10 Este 16 Nordeste 0 -- -- 84
2020-01-24 12:00:00 11.3 11 Este 21 Este 0 -- -- 87
2020-01-24 11:00:00 10.1 8 Este 17 Este 0 -- -- 92
2020-01-24 10:00:00 9.2 3 Este 9 Este 0 -- -- 96
2020-01-24 09:00:00 8.5 5 Este 13 Este 0 -- -- 97
2020-01-24 08:00:00 8.4 0 Calma 7 Este 0.2 -- -- 97
2020-01-24 07:00:00 8.3 0 Calma 4 Este 0 -- -- 97
2020-01-24 06:00:00 8.8 0 Calma 7 Este 0 -- -- 97
2020-01-24 05:00:00 8.9 5 Nordeste 9 Nordeste 0 -- -- 98
2020-01-24 04:00:00 9.1 5 Este 12 Este 0 -- -- 98
2020-01-24 03:00:00 9.2 3 Nordeste 7 Nordeste 0 -- -- 98
2020-01-24 02:00:00 9.3 4 Sudeste 17 Este 0.2 -- -- 98
2020-01-24 01:00:00 9.4 8 Este 15 Sudeste 1.4 -- -- 98
2020-01-24 00:00:00 9.3 4 Sudeste 9 Sudeste 1.8 -- -- 98
2020-01-23 23:00:00 9.4 6 Este 15 Este 0.8 -- -- 97
2020-01-23 22:00:00 9.6 7 Este 13 Este 1.4 -- -- 98
2020-01-23 21:00:00 9.7 5 Este 10 Este 1.8 -- -- 98
2020-01-23 20:00:00 9.8 6 Sudeste 13 Sudeste 6.8 -- -- 97
2020-01-23 19:00:00 10 3 Sudeste 19 Este 3.4 -- -- 95
2020-01-23 18:00:00 10.3 9 Este 14 Nordeste 0.8 -- -- 95
2020-01-23 17:00:00 10.8 0 Calma 25 Nordeste 2.8 -- -- 93
2020-01-23 16:00:00 11.2 11 Este 24 Este 0.4 -- -- 92
2020-01-23 15:00:00 11.7 14 Este 23 Este 0 -- -- 88
2020-01-23 14:00:00 11 17 Este 25 Este 0.2 -- -- 91
2020-01-23 13:00:00 10.4 9 Este 23 Este 0 -- -- 93
2020-01-23 12:00:00 9.6 11 Este 17 Este 0.4 -- -- 96
2020-01-23 11:00:00 8.7 9 Este 20 Este 2.4 -- -- 95
2020-01-23 10:00:00 8.5 12 Este 22 Este 0.2 -- -- 93
2020-01-23 09:00:00 8.4 12 Este 19 Este 0.6 -- -- 94
2020-01-23 08:00:00 8.3 12 Este 26 Este 2.2 -- -- 95
2020-01-23 07:00:00 8.3 5 Este 12 Este 0.4 -- -- 94
2020-01-23 06:00:00 8.2 0 Calma 4 Este 0.4 -- -- 95
2020-01-23 05:00:00 8.3 4 Sur 9 Este 0.2 -- -- 94
2020-01-23 04:00:00 8.1 0 Calma 9 Este 0 -- -- 95
2020-01-23 03:00:00 8.2 2 Sudeste 7 Este 0.6 -- -- 95
2020-01-23 02:00:00 8.3 0 Calma 6 Este 0.2 -- -- 96
2020-01-23 01:00:00 8.2 0 Calma 3 Nordeste 0.2 -- -- 97
2020-01-23 00:00:00 8.1 0 Calma 4 Norte 0.2 -- -- 96
2020-01-22 23:00:00 8 2 Noroeste 4 Sudeste 0.2 -- -- 94
2020-01-22 22:00:00 8.7 2 Este 7 Oeste 0 -- -- 92
2020-01-22 21:00:00 9.8 6 Oeste 13 Sudoeste 0 -- -- 87
2020-01-22 20:00:00 9.8 2 Sudeste 10 Sudeste 0 -- -- 89
2020-01-22 19:00:00 10.2 5 Sudeste 13 Este 0 -- -- 85
2020-01-22 18:00:00 11 8 Este 19 Este 0 -- -- 83
2020-01-22 17:00:00 11.5 9 Este 20 Este 0 -- -- 79
2020-01-22 16:00:00 12.3 14 Este 27 Este 0 -- -- 75
2020-01-22 15:00:00 11.9 14 Este 23 Este 0 -- -- 79
2020-01-22 14:00:00 10.4 8 Este 22 Este 0 -- -- 85
2020-01-22 13:00:00 9.8 16 Este 23 Este 0 -- -- 87
2020-01-22 12:00:00 8.7 12 Este 24 Este 0.4 -- -- 95
2020-01-22 11:00:00 8.1 14 Este 22 Este 0.8 -- -- 97
2020-01-22 10:00:00 7.5 12 Este 20 Este 1.2 -- -- 97
2020-01-22 09:00:00 7.3 9 Este 18 Este 1.8 -- -- 97
2020-01-22 08:00:00 7.3 10 Este 20 Este 2.8 -- -- 97
2020-01-22 07:00:00 7.3 14 Este 30 Este 2.6 -- -- 97
2020-01-22 06:00:00 7.4 10 Este 21 Nordeste 2.8 -- -- 97
2020-01-22 05:00:00 7.3 10 Este 23 Este 2.4 -- -- 96
2020-01-22 04:00:00 7.5 15 Este 22 Este 1.6 -- -- 95
2020-01-22 03:00:00 7.5 14 Este 21 Este 0.4 -- -- 94
2020-01-22 02:00:00 7.5 15 Este 26 Este 0.4 -- -- 90
2020-01-22 01:00:00 8.4 13 Este 24 Este 0 -- -- 83
2020-01-22 00:00:00 6.8 6 Este 9 Nordeste 0 -- -- 88
2020-01-21 23:00:00 5.1 0 Calma 2 Noroeste 0 -- -- 88
2020-01-21 22:00:00 7 0 Calma 9 Nordeste 0 -- -- 80
2020-01-21 21:00:00 8.9 7 Nordeste 19 Nordeste 0 -- -- 75
2020-01-21 20:00:00 9.6 9 Nordeste 24 Nordeste 0 -- -- 70
2020-01-21 19:00:00 9.9 12 Nordeste 24 Norte 0 -- -- 69
2020-01-21 18:00:00 10.4 12 Norte 24 Norte 0 -- -- 66
2020-01-21 17:00:00 10.9 9 Nordeste 25 Norte 0 -- -- 64
2020-01-21 16:00:00 11.1 13 Norte 20 Norte 0 -- -- 63
2020-01-21 15:00:00 10.3 12 Norte 23 Norte 0 -- -- 66
2020-01-21 14:00:00 10 15 Nordeste 27 Nordeste 0 -- -- 65
2020-01-21 13:00:00 10.2 14 Nordeste 34 Nordeste 0 -- -- 65
2020-01-21 12:00:00 10.1 17 Nordeste 37 Nordeste 0 -- -- 64
2020-01-21 11:00:00 9.7 14 Nordeste 24 Norte 0 -- -- 63
2020-01-21 10:00:00 8.6 11 Norte 19 Norte 0 -- -- 67
2020-01-21 09:00:00 7.6 5 Norte 26 Norte 0 -- -- 69
2020-01-21 08:00:00 7.9 17 Norte 29 Norte 0 -- -- 66
2020-01-21 07:00:00 7.8 9 Norte 24 Norte 0 -- -- 65
2020-01-21 06:00:00 8.4 12 Norte 24 Nordeste 0 -- -- 65
2020-01-21 05:00:00 8.4 12 Nordeste 21 Norte 0 -- -- 68
2020-01-21 04:00:00 8.7 10 Nordeste 27 Nordeste 0 -- -- 68
2020-01-21 03:00:00 8.6 13 Nordeste 26 Nordeste 0 -- -- 68
2020-01-21 02:00:00 8.3 13 Nordeste 26 Norte 0 -- -- 69
2020-01-21 01:00:00 8.5 16 Norte 32 Nordeste 0 -- -- 68
2020-01-21 00:00:00 9 20 Nordeste 33 Nordeste 0 -- -- 67
2020-01-20 23:00:00 9 21 Nordeste 36 Nordeste 0 -- -- 66
2020-01-20 22:00:00 9.3 17 Norte 34 Nordeste 0 -- -- 65
2020-01-20 21:00:00 10 22 Nordeste 37 Nordeste 0 -- -- 62
2020-01-20 20:00:00 9.7 19 Nordeste 38 Norte 0 -- -- 62
2020-01-20 19:00:00 9.5 19 Nordeste 37 Nordeste 0 -- -- 61
2020-01-20 18:00:00 10.6 25 Nordeste 40 Nordeste 0 -- -- 56
2020-01-20 17:00:00 12 19 Nordeste 40 Este 0 -- -- 53
2020-01-20 16:00:00 11.8 21 Nordeste 36 Nordeste 0 -- -- 53
2020-01-20 15:00:00 11 19 Nordeste 39 Nordeste 0 -- -- 56
2020-01-20 14:00:00 9.5 23 Nordeste 40 Norte 0 -- -- 57
2020-01-20 13:00:00 9.3 21 Nordeste 47 Nordeste 0 -- -- 56
2020-01-20 12:00:00 8.5 24 Nordeste 43 Nordeste 0 -- -- 54
2020-01-20 11:00:00 7.1 17 Nordeste 30 Este 0 -- -- 57
2020-01-20 10:00:00 6.2 13 Nordeste 31 Nordeste 0 -- -- 59
2020-01-20 09:00:00 6.3 16 Nordeste 38 Nordeste 0 -- -- 57
2020-01-20 08:00:00 6.5 22 Nordeste 35 Nordeste 0 -- -- 56
2020-01-20 07:00:00 6.8 19 Nordeste 34 Nordeste 0 -- -- 53
2020-01-20 06:00:00 6.5 14 Nordeste 29 Nordeste 0 -- -- 53
2020-01-20 05:00:00 6.5 9 Nordeste 29 Nordeste 0 -- -- 54
2020-01-20 04:00:00 7.2 15 Nordeste 33 Norte 0 -- -- 54
2020-01-20 03:00:00 7.3 19 Norte 44 Norte 0 -- -- 57
2020-01-20 02:00:00 7.5 25 Nordeste 49 Norte 0 -- -- 60
2020-01-20 01:00:00 7.5 27 Nordeste 53 Norte 0 -- -- 61
2020-01-20 00:00:00 7.9 27 Nordeste 51 Nordeste 0 -- -- 63
2020-01-19 23:00:00 8.5 28 Nordeste 56 Norte 0 -- -- 62
2020-01-19 22:00:00 8.5 35 Nordeste 56 Nordeste 0 -- -- 64
2020-01-19 21:00:00 8.8 27 Nordeste 50 Nordeste 0 -- -- 67
2020-01-19 20:00:00 9.8 37 Nordeste 58 Nordeste 0 -- -- 62
2020-01-19 19:00:00 11.4 24 Nordeste 38 Nordeste 0 -- -- 49
2020-01-19 18:00:00 11.9 17 Nordeste 34 Norte 0 -- -- 56
2020-01-19 17:00:00 12.2 14 Norte 49 Nordeste 0 -- -- 62
2020-01-19 16:00:00 13.3 24 Norte 42 Norte 0 -- -- 59
2020-01-19 15:00:00 13.6 21 Norte 36 Norte 0 -- -- 57
2020-01-19 14:00:00 13 18 Norte 33 Noroeste 0 -- -- 63
2020-01-19 13:00:00 13.5 11 Norte 25 Norte 0 -- -- 68
2020-01-19 12:00:00 12.5 14 Noroeste 29 Norte 0 -- -- 75
2020-01-19 11:00:00 11 18 Norte 30 Norte 0 -- -- 77
2020-01-19 10:00:00 9.2 6 Noroeste 10 Norte 0 -- -- 92
2020-01-19 09:00:00 7.3 0 Calma 9 Sudeste 0 -- -- 96
2020-01-19 08:00:00 6.4 8 Sudeste 12 Sudeste 0 -- -- 96
2020-01-19 07:00:00 7 4 Norte 14 Noroeste 0 -- -- 91
2020-01-19 06:00:00 7.4 4 Oeste 19 Noroeste 0 -- -- 91
2020-01-19 05:00:00 7.4 6 Oeste 15 Oeste 0 -- -- 92
2020-01-19 04:00:00 7.6 7 Oeste 17 Oeste 0 -- -- 97
2020-01-19 03:00:00 8 7 Oeste 10 Sudoeste 0.2 -- -- 97
2020-01-19 02:00:00 8.3 7 Noroeste 17 Sudoeste 0 -- -- 94
2020-01-19 01:00:00 9.8 8 Oeste 13 Oeste 0 -- -- 98
2020-01-19 00:00:00 10.6 5 Noroeste 17 Oeste 0 -- -- 98
2020-01-18 23:00:00 12.1 10 Noroeste 17 Oeste 0 -- -- 100
2020-01-18 22:00:00 11.9 8 Oeste 14 Sudoeste 0 -- -- 99
2020-01-18 21:00:00 11.8 5 Oeste 8 Oeste 0 -- -- 99
2020-01-18 20:00:00 11.3 3 Oeste 7 Sudoeste 0 -- -- 99
2020-01-18 19:00:00 11.1 2 Noroeste 4 Sur 0.8 -- -- 98
2020-01-18 18:00:00 11 0 Calma 5 Nordeste 1 -- -- 98
2020-01-18 17:00:00 10.9 3 Sudeste 6 Este 1.6 -- -- 98
2020-01-18 16:00:00 10.8 3 Este 6 Este 1.2 -- -- 97
2020-01-18 15:00:00 10.7 0 Calma 7 Sur 1.4 -- -- 97
2020-01-18 14:00:00 10.3 3 Este 9 Este 0.2 -- -- 96
2020-01-18 13:00:00 10.1 4 Sudeste 10 Sudeste 0.2 -- -- 95
2020-01-18 12:00:00 9.7 6 Sudeste 10 Sudeste 0 -- -- 97
2020-01-18 11:00:00 9 8 Este 15 Este 0.6 -- -- 97
2020-01-18 10:00:00 9.1 5 Sudeste 9 Sudeste 1.4 -- -- 99
2020-01-18 09:00:00 8.3 0 Calma 5 Sudeste 1.2 -- -- 98
2020-01-18 08:00:00 8 0 Calma 4 Este 0.2 -- -- 98
2020-01-18 07:00:00 7.9 0 Calma 5 Oeste 0 -- -- 98
2020-01-18 06:00:00 7.5 2 Nordeste 6 Este 0 -- -- 98
2020-01-18 05:00:00 7.2 0 Calma 4 Nordeste 0 -- -- 98
2020-01-18 04:00:00 6.9 0 Calma 4 Norte 0 -- -- 97
2020-01-18 03:00:00 6.4 0 Calma 2 Sudeste 0 -- -- 97
2020-01-18 02:00:00 6.5 2 Noroeste 5 Este 0 -- -- 98
2020-01-18 01:00:00 5.8 2 Oeste 5 Noroeste 0 -- -- 96
2020-01-18 00:00:00 5.9 2 Noroeste 5 Noroeste 0 -- -- 94
2020-01-17 23:00:00 6.7 0 Calma 3 Norte 0 -- -- 94
2020-01-17 22:00:00 7.7 0 Calma 4 Norte 0 -- -- 93
2020-01-17 21:00:00 8 0 Calma 4 Noroeste 0 -- -- 90
2020-01-17 20:00:00 9.5 0 Calma 4 Noroeste 0 -- -- 86
2020-01-17 19:00:00 12.6 0 Calma 8 Sudoeste 0 -- -- 81
2020-01-17 18:00:00 15.9 3 Sur 7 Sudoeste 0 -- -- 70
2020-01-17 17:00:00 16.9 4 Sudoeste 13 Sur 0 -- -- 65
2020-01-17 16:00:00 16.5 4 Sudeste 14 Sudeste 0 -- -- 67
2020-01-17 15:00:00 16.1 4 Sur 10 Sudeste 0 -- -- 69
2020-01-17 14:00:00 15 5 Sudeste 10 Este 0 -- -- 73
2020-01-17 13:00:00 13.8 4 Sudeste 9 Sudeste 0 -- -- 77
2020-01-17 12:00:00 12.1 4 Sudeste 9 Este 0 -- -- 81
2020-01-17 11:00:00 10.7 3 Este 5 Este 0 -- -- 84
2020-01-17 10:00:00 9.4 2 Este 5 Norte 0 -- -- 93
2020-01-17 09:00:00 8.9 0 Calma 6 Sur 0 -- -- 95
2020-01-17 08:00:00 9 0 Calma 3 Noroeste 0.2 -- -- 94
2020-01-17 07:00:00 9 0 Calma 6 Nordeste 0 -- -- 93
2020-01-17 06:00:00 8.9 0 Calma 4 Este 0 -- -- 93
2020-01-17 05:00:00 8.7 3 Este 6 Nordeste 0 -- -- 92
2020-01-17 04:00:00 8.1 8 Nordeste 10 Nordeste 0 -- -- 95
2020-01-17 03:00:00 8.2 0 Calma 7 Este 0 -- -- 91
2020-01-17 02:00:00 7.6 0 Calma 8 Sudoeste 0 -- -- 91
2020-01-17 01:00:00 6.5 0 Calma 6 Noroeste 0 -- -- 93
2020-01-17 00:00:00 5.6 0 Calma 9 Nordeste 0 -- -- 90
2020-01-16 23:00:00 5.9 2 Norte 8 Nordeste 0 -- -- 93
2020-01-16 22:00:00 5.2 0 Calma 5 Noroeste 0 -- -- 90
2020-01-16 21:00:00 5.2 3 Norte 5 Noroeste 0 -- -- 87
2020-01-16 20:00:00 7 3 Noroeste 5 Noroeste 0 -- -- 81
2020-01-16 19:00:00 9.8 0 Calma 4 Este 0 -- -- 71
2020-01-16 18:00:00 15.3 2 Oeste 21 Oeste 0 -- -- 51
2020-01-16 17:00:00 17.2 10 Sudoeste 21 Sudoeste 0 -- -- 42
2020-01-16 16:00:00 17.7 8 Sudoeste 18 Sudoeste 0 -- -- 40
2020-01-16 15:00:00 16.9 4 Sudeste 10 Sudeste 0 -- -- 46
2020-01-16 14:00:00 15.4 2 Este 11 Este 0 -- -- 55
2020-01-16 13:00:00 13.6 6 Este 15 Este 0 -- -- 60
2020-01-16 12:00:00 12.3 10 Este 16 Este 0 -- -- 65
2020-01-16 11:00:00 8.3 0 Calma 3 Oeste 0 -- -- 99
2020-01-16 10:00:00 3.2 0 Calma 3 Noroeste 0 -- -- 100
2020-01-16 09:00:00 0.7 2 Norte 3 Oeste 0 -- -- 98
2020-01-16 08:00:00 0.8 0 Calma 3 Norte 0 -- -- 98
2020-01-16 07:00:00 1.1 0 Calma 3 Norte 0 -- -- 97
2020-01-16 06:00:00 1.7 0 Calma 4 Noroeste 0 -- -- 97
2020-01-16 05:00:00 1.9 0 Calma 2 Sudeste 0 -- -- 96
2020-01-16 04:00:00 2.8 0 Calma 3 Noroeste 0 -- -- 94
2020-01-16 03:00:00 3.9 0 Calma 2 Noroeste 0 -- -- 94
2020-01-16 02:00:00 5.1 2 Norte 5 Oeste 0 -- -- 93
2020-01-16 01:00:00 6.6 2 Noroeste 4 Oeste 0 -- -- 91
2020-01-16 00:00:00 8.8 0 Calma 8 Nordeste 0 -- -- 90
2020-01-15 23:00:00 8.7 2 Este 5 Este 0 -- -- 91
2020-01-15 22:00:00 9.2 2 Noroeste 6 Noroeste 0 -- -- 90
2020-01-15 21:00:00 9.9 3 Norte 6 Noroeste 0 -- -- 88
2020-01-15 20:00:00 11.4 2 Noroeste 4 Norte 0 -- -- 85
2020-01-15 19:00:00 12.7 0 Calma 5 Este 0 -- -- 80
2020-01-15 18:00:00 14 2 Este 11 Este 0 -- -- 73
2020-01-15 17:00:00 15.5 7 Sudeste 15 Sur 0 -- -- 67
2020-01-15 16:00:00 15.4 6 Sudeste 12 Sudeste 0 -- -- 69
2020-01-15 15:00:00 13.6 4 Sudeste 11 Sudeste 0 -- -- 72
2020-01-15 14:00:00 12 4 Este 12 Este 0 -- -- 70
2020-01-15 13:00:00 11.4 7 Este 14 Este 0 -- -- 70
2020-01-15 12:00:00 10.6 11 Este 15 Este 0 -- -- 73
2020-01-15 11:00:00 6.1 0 Calma 4 Sur 0 -- -- 99
2020-01-15 10:00:00 2.8 0 Calma 5 Noroeste 0 -- -- 99
2020-01-15 09:00:00 -0.2 3 Noroeste 5 Noroeste 0 -- -- 98
2020-01-15 08:00:00 -0.3 0 Calma 4 Noroeste 0 -- -- 96
2020-01-15 07:00:00 0.4 0 Calma 4 Noroeste 0 -- -- 97
2020-01-15 06:00:00 0.6 0 Calma 3 Noroeste 0 -- -- 96
2020-01-15 05:00:00 0.7 0 Calma 4 Norte 0 -- -- 95
2020-01-15 04:00:00 1.3 0 Calma 2 Noroeste 0 -- -- 95
2020-01-15 03:00:00 1.8 0 Calma 3 Norte 0 -- -- 93
2020-01-15 02:00:00 2.9 0 Calma 4 Noroeste 0 -- -- 94
2020-01-15 01:00:00 3.8 0 Calma 3 Noroeste 0 -- -- 94
2020-01-15 00:00:00 4.7 0 Calma 5 Noroeste 0 -- -- 91
2020-01-14 23:00:00 6 2 Noroeste 3 Nordeste 0 -- -- 89
2020-01-14 22:00:00 8 0 Calma 15 Oeste 0 -- -- 89
2020-01-14 21:00:00 7.3 2 Sudeste 4 Este 0 -- -- 87
2020-01-14 20:00:00 8.4 0 Calma 5 Norte 0 -- -- 84
2020-01-14 19:00:00 9.8 0 Calma 5 Oeste 0 -- -- 77
2020-01-14 18:00:00 12.7 2 Sur 11 Sudoeste 0 -- -- 64
2020-01-14 17:00:00 13 7 Sudoeste 15 Sur 0 -- -- 61
2020-01-14 16:00:00 13.9 9 Sur 18 Sur 0 -- -- 57
2020-01-14 15:00:00 13.4 4 Sur 15 Sudeste 0 -- -- 60
2020-01-14 14:00:00 13.2 6 Sudeste 14 Sudeste 0 -- -- 64
2020-01-14 13:00:00 12 5 Sudeste 9 Sudeste 0 -- -- 71
2020-01-14 12:00:00 10.5 3 Este 8 Sudeste 0 -- -- 75
2020-01-14 11:00:00 7.1 0 Calma 5 Noroeste 0 -- -- 97
2020-01-14 10:00:00 2.8 0 Calma 4 Norte 0 -- -- 99
2020-01-14 09:00:00 0.9 0 Calma 3 Sur 0 -- -- 96
2020-01-14 08:00:00 2.3 3 Noroeste 6 Sur 0 -- -- 97
2020-01-14 07:00:00 3.4 0 Calma 6 Sudoeste 0 -- -- 98
2020-01-14 06:00:00 2.5 0 Calma 3 Oeste 0 -- -- 98
2020-01-14 05:00:00 0.8 0 Calma 4 Norte 0 -- -- 98
2020-01-14 04:00:00 -0.7 2 Noroeste 3 Sur 0 -- -- 97
2020-01-14 03:00:00 -0.7 0 Calma 3 Noroeste 0 -- -- 95
2020-01-14 02:00:00 -0.2 2 Sur 4 Oeste 0 -- -- 95
2020-01-14 01:00:00 0 3 Noroeste 4 Noroeste 0 -- -- 94
2020-01-14 00:00:00 0.6 0 Calma 6 Norte 0 -- -- 94
2020-01-13 23:00:00 1.3 2 Noroeste 7 Noroeste 0 -- -- 93
2020-01-13 22:00:00 2.3 2 Oeste 5 Noroeste 0 -- -- 91
2020-01-13 21:00:00 3.9 0 Calma 5 Noroeste 0 -- -- 86
2020-01-13 20:00:00 6.1 4 Noroeste 6 Norte 0 -- -- 85
2020-01-13 19:00:00 9.2 3 Noroeste 9 Sudoeste 0 -- -- 80
2020-01-13 18:00:00 12.9 5 Sudoeste 17 Sudoeste 0 -- -- 67
2020-01-13 17:00:00 13.9 10 Sudoeste 17 Sudoeste 0 -- -- 62
2020-01-13 16:00:00 14.4 7 Sur 15 Sur 0 -- -- 60
2020-01-13 15:00:00 14 5 Sudeste 9 Sudeste 0 -- -- 60
2020-01-13 14:00:00 13.2 4 Sudoeste 10 Este 0 -- -- 61
2020-01-13 13:00:00 11.4 4 Este 12 Sudeste 0 -- -- 67
2020-01-13 12:00:00 10.2 6 Este 12 Este 0 -- -- 72
2020-01-13 11:00:00 5.9 0 Calma 2 Noroeste 0 -- -- 96
2020-01-13 10:00:00 0.7 0 Calma 2 Sudeste 0 -- -- 99
2020-01-13 09:00:00 -3 0 Calma 2 Oeste 0 -- -- 96
2020-01-13 08:00:00 -3.2 0 Calma 3 Oeste 0 -- -- 95
2020-01-13 07:00:00 -2.9 2 Noroeste 4 Noroeste 0 -- -- 95
2020-01-13 06:00:00 -2.7 0 Calma 3 Noroeste 0 -- -- 94
2020-01-13 05:00:00 -2.4 0 Calma 3 Norte 0 -- -- 94
2020-01-13 04:00:00 -1.7 2 Norte 3 Norte 0 -- -- 95
2020-01-13 03:00:00 -1.5 0 Calma 4 Noroeste 0 -- -- 94
2020-01-13 02:00:00 -1.2 0 Calma 2 Noroeste 0 -- -- 93
2020-01-13 01:00:00 -0.8 0 Calma 3 Oeste 0 -- -- 92
2020-01-13 00:00:00 -0.3 0 Calma 3 Sudoeste 0 -- -- 91
2020-01-12 23:00:00 0.6 0 Calma 4 Norte 0 -- -- 90
2020-01-12 22:00:00 1.6 0 Calma 3 Norte 0 -- -- 88
2020-01-12 21:00:00 3.2 0 Calma 3 Norte 0 -- -- 85
2020-01-12 20:00:00 5.5 3 Norte 4 Norte 0 -- -- 78
2020-01-12 19:00:00 9.1 3 Noroeste 4 Noroeste 0 -- -- 72
2020-01-12 18:00:00 14.6 3 Sur 8 Sudeste 0 -- -- 55
2020-01-12 17:00:00 15.5 4 Sudeste 9 Sur 0 -- -- 48
2020-01-12 16:00:00 15.4 4 Sudeste 10 Sudeste 0 -- -- 51
2020-01-12 15:00:00 15 4 Sudeste 12 Sudeste 0 -- -- 53
2020-01-12 14:00:00 13.7 6 Sudeste 14 Este 0 -- -- 60
2020-01-12 13:00:00 12.8 6 Este 15 Este 0 -- -- 62
2020-01-12 12:00:00 11.2 10 Este 16 Este 0 -- -- 64
2020-01-12 11:00:00 6.9 0 Calma 2 Este 0 -- -- 89
2020-01-12 10:00:00 2 0 Calma 2 Oeste 0 -- -- 99
2020-01-12 09:00:00 -2.4 0 Calma 2 Oeste 0 -- -- 96
2020-01-12 08:00:00 -2.4 0 Calma 2 Noroeste 0 -- -- 95
2020-01-12 07:00:00 -2.1 0 Calma 2 Noroeste 0 -- -- 95
2020-01-12 06:00:00 -1.6 0 Calma 2 Norte 0 -- -- 95
2020-01-12 05:00:00 -1.4 2 Oeste 3 Oeste 0 -- -- 95
2020-01-12 04:00:00 -1.2 0 Calma 3 Noroeste 0 -- -- 94
2020-01-12 03:00:00 -0.6 2 Norte 3 Norte 0 -- -- 95
2020-01-12 02:00:00 -0.5 3 Oeste 4 Oeste 0 -- -- 93
2020-01-12 01:00:00 0 2 Oeste 3 Oeste 0 -- -- 93
2020-01-12 00:00:00 0.5 0 Calma 3 Noroeste 0 -- -- 91
2020-01-11 23:00:00 1.4 0 Calma 3 Noroeste 0 -- -- 90
2020-01-11 22:00:00 2.4 0 Calma 4 Noroeste 0 -- -- 90
2020-01-11 21:00:00 3.6 2 Noroeste 3 Oeste 0 -- -- 86
2020-01-11 20:00:00 5.8 0 Calma 5 Noroeste 0 -- -- 81
2020-01-11 19:00:00 9.3 3 Noroeste 5 Noroeste 0 -- -- 72
2020-01-11 18:00:00 15.3 3 Sur 8 Sudeste 0 -- -- 55
2020-01-11 17:00:00 16.1 6 Sur 10 Sudeste 0 -- -- 47
2020-01-11 16:00:00 16 5 Sudeste 14 Sudeste 0 -- -- 47
2020-01-11 15:00:00 14.6 6 Este 21 Este 0 -- -- 46
2020-01-11 14:00:00 13.6 11 Este 20 Este 0 -- -- 54
2020-01-11 13:00:00 13.1 8 Sudeste 22 Este 0 -- -- 57
2020-01-11 12:00:00 12.3 8 Este 14 Este 0 -- -- 57
2020-01-11 11:00:00 10.6 5 Este 11 Norte 0 -- -- 60
2020-01-11 10:00:00 7.7 4 Norte 12 Norte 0 -- -- 67
2020-01-11 09:00:00 3.7 4 Norte 12 Norte 0 -- -- 80
2020-01-11 08:00:00 4.8 5 Nordeste 9 Nordeste 0 -- -- 75
2020-01-11 07:00:00 2.2 3 Sudeste 11 Norte 0 -- -- 84
2020-01-11 06:00:00 4.4 6 Este 10 Este 0 -- -- 76
2020-01-11 05:00:00 4.4 5 Norte 17 Norte 0 -- -- 76
2020-01-11 04:00:00 6.6 9 Norte 21 Noroeste 0 -- -- 69
2020-01-11 03:00:00 4.9 6 Noroeste 13 Noroeste 0 -- -- 77
2020-01-11 02:00:00 2.5 0 Calma 5 Sur 0 -- -- 86
2020-01-11 01:00:00 3.1 2 Sur 8 Oeste 0 -- -- 85
2020-01-11 00:00:00 3.8 5 Noroeste 8 Noroeste 0 -- -- 83
2020-01-10 23:00:00 3.8 6 Noroeste 8 Norte 0 -- -- 85
2020-01-10 22:00:00 3.1 2 Oeste 4 Oeste 0 -- -- 88
2020-01-10 21:00:00 5 0 Calma 6 Este 0 -- -- 82
2020-01-10 20:00:00 8.1 2 Nordeste 16 Norte 0 -- -- 71
2020-01-10 19:00:00 10.1 4 Nordeste 17 Norte 0 -- -- 66
2020-01-10 18:00:00 13.9 10 Norte 20 Nordeste 0 -- -- 52
2020-01-10 17:00:00 15.4 6 Norte 14 Norte 0 -- -- 58
2020-01-10 16:00:00 14.8 5 Sudeste 13 Este 0 -- -- 65
2020-01-10 15:00:00 14.3 5 Norte 18 Norte 0 -- -- 65
2020-01-10 14:00:00 13.8 7 Norte 16 Norte 0 -- -- 68
2020-01-10 13:00:00 12.7 5 Norte 22 Norte 0 -- -- 70
2020-01-10 12:00:00 11.4 9 Nordeste 28 Norte 0 -- -- 72
2020-01-10 11:00:00 9.4 16 Norte 27 Noroeste 0 -- -- 83
2020-01-10 10:00:00 5.4 16 Noroeste 22 Norte 0 -- -- 100
2020-01-10 09:00:00 0.5 3 Noroeste 4 Noroeste 0 -- -- 98
2020-01-10 08:00:00 0.1 0 Calma 3 Norte 0 -- -- 98
2020-01-10 07:00:00 0.5 0 Calma 3 Norte 0 -- -- 98
2020-01-10 06:00:00 1.3 0 Calma 4 Noroeste 0 -- -- 97
2020-01-10 05:00:00 2.2 0 Calma 7 Oeste 0 -- -- 97
2020-01-10 04:00:00 2 0 Calma 5 Norte 0 -- -- 96
2020-01-10 03:00:00 3.1 0 Calma 4 Oeste 0 -- -- 97
2020-01-10 02:00:00 3.5 0 Calma 5 Oeste 0 -- -- 97
2020-01-10 01:00:00 3.2 0 Calma 6 Sudoeste 0 -- -- 97
2020-01-10 00:00:00 2.8 0 Calma 3 Noroeste 0 -- -- 94
2020-01-09 23:00:00 3.5 0 Calma 2 Noroeste 0 -- -- 92
2020-01-09 22:00:00 4.7 0 Calma 3 Noroeste 0 -- -- 92
2020-01-09 21:00:00 5.8 0 Calma 6 Noroeste 0 -- -- 92
2020-01-09 20:00:00 6.9 6 Noroeste 9 Noroeste 0 -- -- 89
2020-01-09 19:00:00 10 2 Noroeste 10 Sur 0 -- -- 82
2020-01-09 18:00:00 13.9 5 Sur 13 Sur 0 -- -- 70
2020-01-09 17:00:00 15 9 Sudoeste 15 Sudoeste 0 -- -- 67
2020-01-09 16:00:00 14.9 10 Sudoeste 21 Sudoeste 0 -- -- 66
2020-01-09 15:00:00 14.8 9 Sudoeste 23 Oeste 0 -- -- 68
2020-01-09 14:00:00 14.8 8 Oeste 15 Oeste 0 -- -- 66
2020-01-09 13:00:00 13.2 8 Oeste 13 Oeste 0 -- -- 73
2020-01-09 12:00:00 10.4 2 Sur 4 Sur 0 -- -- 80
2020-01-09 11:00:00 6 0 Calma 5 Sudoeste 0 -- -- 96
2020-01-09 10:00:00 1.9 0 Calma -- -- 0 -- -- 99
2020-01-09 09:00:00 -1.6 0 Calma 2 Noroeste 0 -- -- 96
2020-01-09 08:00:00 -1.7 0 Calma 2 Oeste 0 -- -- 96
2020-01-09 07:00:00 -1.5 0 Calma 4 Noroeste 0 -- -- 95
2020-01-09 06:00:00 -0.9 0 Calma 3 Noroeste 0 -- -- 95
2020-01-09 05:00:00 -0.6 0 Calma 3 Norte 0 -- -- 96
2020-01-09 04:00:00 -0.3 3 Norte 3 Norte 0 -- -- 95
2020-01-09 03:00:00 0.1 0 Calma 4 Noroeste 0 -- -- 94
2020-01-09 02:00:00 0.7 0 Calma 3 Noroeste 0 -- -- 94
2020-01-09 01:00:00 1.3 0 Calma 2 Noroeste 0 -- -- 93
2020-01-09 00:00:00 1.8 2 Oeste 3 Oeste 0 -- -- 93
2020-01-08 23:00:00 2.6 0 Calma 4 Norte 0 -- -- 91
2020-01-08 22:00:00 3.5 3 Norte 4 Noroeste 0 -- -- 90
2020-01-08 21:00:00 4.9 0 Calma 2 Noroeste 0 -- -- 87
2020-01-08 20:00:00 6.9 0 Calma 4 Noroeste 0 -- -- 81
2020-01-08 19:00:00 10 3 Norte 4 Sur 0 -- -- 75
2020-01-08 18:00:00 17 0 Calma 5 Sur 0 -- -- 55
2020-01-08 17:00:00 17.8 0 Calma 5 Sudeste 0 -- -- 43
2020-01-08 16:00:00 17.3 0 Calma 12 Sudeste 0 -- -- 45
2020-01-08 15:00:00 17.1 7 Sudeste 14 Sudeste 0 -- -- 50
2020-01-08 14:00:00 16.7 6 Sudeste 12 Sudeste 0 -- -- 49
2020-01-08 13:00:00 15.1 4 Este 6 Este 0 -- -- 61
2020-01-08 12:00:00 11.3 2 Sudoeste 5 Sudoeste 0 -- -- 73
2020-01-08 11:00:00 6.4 0 Calma -- -- 0 -- -- 95
2020-01-08 10:00:00 1.4 0 Calma -- -- 0 -- -- 99
2020-01-08 09:00:00 -2 0 Calma -- -- 0 -- -- 96
2020-01-08 08:00:00 -1.9 0 Calma -- -- 0 -- -- 96
2020-01-08 07:00:00 -1.9 0 Calma -- -- 0 -- -- 95
2020-01-08 06:00:00 -1.5 0 Calma -- -- 0 -- -- 95
2020-01-08 05:00:00 -0.9 0 Calma -- -- 0 -- -- 96
2020-01-08 04:00:00 -0.6 0 Calma 2 Oeste 0 -- -- 96
2020-01-08 03:00:00 -0.5 0 Calma 2 Norte 0 -- -- 95
2020-01-08 02:00:00 -0.1 0 Calma 3 Norte 0 -- -- 94
2020-01-08 01:00:00 0.5 2 Noroeste 3 Noroeste 0 -- -- 94
2020-01-08 00:00:00 1.1 0 Calma 3 Oeste -- -- -- 93
2020-01-07 23:00:00 1.9 0 Calma 3 Norte 0 -- -- 91
2020-01-07 22:00:00 3 0 Calma 3 Norte 0 -- -- 88
2020-01-07 21:00:00 4.4 0 Calma 2 Noroeste 0 -- -- 85
2020-01-07 20:00:00 6.8 0 Calma 4 Noroeste 0 -- -- 81
2020-01-07 19:00:00 10 3 Noroeste 6 Noroeste 0 -- -- 75
2020-01-07 18:00:00 15.8 0 Calma 9 Este 0 -- -- 60
2020-01-07 17:00:00 16.2 6 Este 14 Este 0 -- -- 50
2020-01-07 16:00:00 17 8 Sudeste 14 Sudeste 0 -- -- 55
2020-01-07 15:00:00 16.8 7 Sudeste 17 Este 0 -- -- 56
2020-01-07 14:00:00 15.3 7 Este 15 Este 0 -- -- 61
2020-01-07 13:00:00 14.2 8 Este 14 Este 0 -- -- 64
2020-01-07 12:00:00 11.1 3 Sudeste 13 Este 0 -- -- 77
2020-01-07 11:00:00 7.2 0 Calma 4 Este 0 -- -- 97
2020-01-07 10:00:00 2.1 0 Calma 2 Noroeste 0.2 -- -- 100
2020-01-07 09:00:00 -1.4 0 Calma 3 Sudoeste 0 -- -- 97
2020-01-07 08:00:00 -1.4 2 Norte 3 Noroeste 0 -- -- 97
2020-01-07 07:00:00 -1.2 0 Calma 2 Oeste 0 -- -- 97
2020-01-07 06:00:00 -0.8 0 Calma 5 Noroeste 0 -- -- 96
2020-01-07 05:00:00 -0.2 3 Norte 4 Norte 0 -- -- 97
2020-01-07 04:00:00 -0.1 0 Calma 2 Noroeste 0 -- -- 96
2020-01-07 03:00:00 0.3 0 Calma 4 Norte 0 -- -- 95
2020-01-07 02:00:00 0.9 2 Noroeste 4 Norte 0 -- -- 96
2020-01-07 01:00:00 1.2 0 Calma 4 Norte 0 -- -- 94
2020-01-07 00:00:00 1.9 0 Calma 4 Oeste 0 -- -- 93
2020-01-06 23:00:00 2.7 2 Sudoeste 4 Oeste 0 -- -- 93
2020-01-06 22:00:00 3.6 2 Noroeste 3 Norte 0 -- -- 91
2020-01-06 21:00:00 4.5 2 Noroeste 3 Noroeste 0 -- -- 89
2020-01-06 20:00:00 6.4 0 Calma 4 Noroeste 0 -- -- 85
2020-01-06 19:00:00 9.6 2 Noroeste 5 Sur 0 -- -- 80
2020-01-06 18:00:00 14.5 3 Sur 7 Sudeste 0 -- -- 68
2020-01-06 17:00:00 15.3 5 Sudeste 12 Sudeste 0 -- -- 64
2020-01-06 16:00:00 15.4 7 Sudeste 13 Sur 0 -- -- 63
2020-01-06 15:00:00 15 8 Sudeste 16 Este 0 -- -- 62
2020-01-06 14:00:00 14.5 6 Sudeste 11 Sudeste 0 -- -- 66
2020-01-06 13:00:00 13.4 5 Sudeste 12 Sudeste 0 -- -- 70
2020-01-06 12:00:00 11.3 0 Calma 4 Sudeste 0 -- -- 81
2020-01-06 11:00:00 7 0 Calma -- -- 0 -- -- 99
2020-01-06 10:00:00 2.2 0 Calma -- -- 0 -- -- 100